Michigan City, IN

7:55 PM CST on February 25, 2018 (GMT -0600)
Michigan City Municipal

Weather History for KMGC - May, 2013

Change the Weather History Date:

Wednesday, May 15, 2013

  Actual Average (KSBN) Record (KSBN)
Temperature  
Mean Temperature 65 °F -  
Max Temperature 77 °F 69 °F 90 °F (1991)
Min Temperature 53 °F 48 °F 31 °F (2016)
Growing Degree Days 15 (Base 50)    
Moisture  
Dew Point 49 °F    
Average Humidity 49    
Maximum Humidity 88    
Minimum Humidity 35    
Precipitation  
Precipitation 0.00 in - - ()
Sea Level Pressure  
Sea Level Pressure 29.78 in    
Wind  
Wind Speed 10 mph (WNW)    
Max Wind Speed 20 mph    
Max Gust Speed 37 mph    
Visibility 10 miles    
Events Rain    
Averages and records for this station are not official NWS values.
T = Trace of Precipitation, MM = Missing Value Source: NWS Daily Summary

Daily Weather History Graph

Daily Weather History Graph

Search for Another Location

Airport or City:

Trip Planner

Search our weather history database for the weather conditions in past years. The results will help you decide how hot, cold, wet, or windy it might be!

Date:

Astronomy

May. 15, 2013 Rise Set
Actual Time 5:27 AM CDT 8:00 PM CDT
Civil Twilight 4:55 AM CDT 8:32 PM CDT
Nautical Twilight 4:16 AM CDT 9:12 PM CDT
Astronomical Twilight 3:31 AM CDT 9:56 PM CDT
Moon 10:03 AM CDT (5/15) No Moon Set
Length of Visible Light 15h 36m
Length of Day
14h 33m
Waxing Crescent, 27% of the Moon is Illuminated
May 15
Waxing Crescent
May 17
First Quarter
May 24
Full
May 31
Last Quarter
Jun 8
New

Hourly Weather History & Observations

Time (CDT) Temp. Dew Point Humidity Pressure Visibility Wind Dir Wind Speed Gust Speed Precip Events Conditions
12:15 AM 77.0 °F 55.4 °F 47% 29.67 in 10.0 mi SSW 13.8 mph 21.9 mph N/A   Clear
12:35 AM 75.2 °F 55.4 °F 50% 29.67 in 10.0 mi SW 12.7 mph 23.0 mph N/A   Clear
12:55 AM 75.2 °F 53.6 °F 47% 29.67 in 10.0 mi SSW 10.4 mph 18.4 mph N/A   Clear
1:15 AM 75.2 °F 53.6 °F 47% 29.67 in 10.0 mi SSW 15.0 mph 21.9 mph N/A   Clear
1:35 AM 75.2 °F 53.6 °F 47% 29.66 in 10.0 mi SSW 13.8 mph 19.6 mph N/A   Clear
1:55 AM 75.2 °F 53.6 °F 47% 29.66 in 10.0 mi SW 15.0 mph 24.2 mph N/A   Clear
2:15 AM 75.2 °F 51.8 °F 44% 29.66 in 10.0 mi SW 19.6 mph 36.8 mph N/A   Clear
2:35 AM 73.4 °F 51.8 °F 47% 29.66 in 10.0 mi SW 17.3 mph 25.3 mph N/A   Clear
2:55 AM 73.4 °F 51.8 °F 47% 29.66 in 10.0 mi SW 13.8 mph 23.0 mph N/A   Clear
3:15 AM 73.4 °F 50.0 °F 44% 29.66 in 10.0 mi WSW 12.7 mph 25.3 mph N/A   Clear
3:35 AM 73.4 °F 50.0 °F 44% 29.66 in 10.0 mi SW 16.1 mph 21.9 mph N/A   Clear
3:55 AM 73.4 °F 50.0 °F 44% 29.67 in 10.0 mi SW 13.8 mph 20.7 mph N/A   Clear
4:15 AM 73.4 °F 50.0 °F 44% 29.67 in 10.0 mi WSW 16.1 mph 25.3 mph N/A   Clear
4:35 AM 73.4 °F 50.0 °F 44% 29.68 in 10.0 mi WSW 11.5 mph 19.6 mph N/A Rain Light Rain
4:55 AM 73.4 °F 50.0 °F 44% 29.69 in 10.0 mi WSW 12.7 mph 19.6 mph N/A Rain Light Rain
5:15 AM 71.6 °F 53.6 °F 53% 29.70 in 10.0 mi WSW 10.4 mph - N/A   Clear
5:35 AM 71.6 °F 51.8 °F 50% 29.72 in 10.0 mi WSW 12.7 mph 19.6 mph N/A   Clear
5:55 AM 71.6 °F 51.8 °F 50% 29.72 in 10.0 mi WSW 12.7 mph 17.3 mph N/A   Clear
6:15 AM 73.4 °F 50.0 °F 44% 29.73 in 10.0 mi WSW 12.7 mph 17.3 mph N/A   Clear
6:35 AM 71.6 °F 51.8 °F 50% 29.74 in 10.0 mi West 5.8 mph 17.3 mph N/A   Scattered Clouds
6:55 AM 71.6 °F 51.8 °F 50% 29.75 in 10.0 mi West 8.1 mph - N/A   Clear
7:15 AM 71.6 °F 51.8 °F 50% 29.76 in 10.0 mi West 8.1 mph - N/A   Clear
7:35 AM 73.4 °F 51.8 °F 47% 29.76 in 10.0 mi West 8.1 mph - N/A   Clear
7:55 AM 73.4 °F 51.8 °F 47% 29.77 in 10.0 mi WNW 5.8 mph - N/A   Clear
8:15 AM 73.4 °F 51.8 °F 47% 29.78 in 10.0 mi West 10.4 mph - N/A   Clear
8:35 AM 73.4 °F 50.0 °F 44% 29.79 in 10.0 mi West 12.7 mph - N/A   Clear
8:55 AM 73.4 °F 51.8 °F 47% 29.79 in 10.0 mi West 9.2 mph 17.3 mph N/A   Clear
9:15 AM 73.4 °F 50.0 °F 44% 29.80 in 10.0 mi West 8.1 mph - N/A   Clear
9:35 AM 73.4 °F 50.0 °F 44% 29.81 in 10.0 mi West 8.1 mph 17.3 mph N/A   Clear
10:15 AM 73.4 °F 46.4 °F 38% 29.82 in 10.0 mi NNW 11.5 mph 19.6 mph N/A   Clear
10:35 AM 73.4 °F 44.6 °F 36% 29.84 in 10.0 mi NW 9.2 mph 18.4 mph N/A   Clear
10:55 AM 71.6 °F 44.6 °F 38% 29.85 in 10.0 mi NW 9.2 mph - N/A   Clear
11:15 AM 73.4 °F 44.6 °F 36% 29.85 in 10.0 mi North 9.2 mph - N/A   Clear
11:35 AM 71.6 °F 42.8 °F 35% 29.84 in 10.0 mi NNW 11.5 mph 16.1 mph N/A   Clear
11:55 AM 73.4 °F 44.6 °F 36% 29.84 in 10.0 mi North 13.8 mph 17.3 mph N/A   Clear
12:15 PM 73.4 °F 44.6 °F 36% 29.84 in 10.0 mi North 9.2 mph - N/A   Clear
12:35 PM 71.6 °F 44.6 °F 38% 29.85 in 10.0 mi NNE 9.2 mph - N/A   Clear
12:55 PM 71.6 °F 44.6 °F 38% 29.85 in 10.0 mi North 12.7 mph - N/A   Clear
1:15 PM 71.6 °F 44.6 °F 38% 29.85 in 10.0 mi North 9.2 mph - N/A   Clear
1:35 PM 71.6 °F 44.6 °F 38% 29.84 in 10.0 mi North 8.1 mph 16.1 mph N/A   Clear
1:55 PM 73.4 °F 44.6 °F 36% 29.84 in 10.0 mi North 8.1 mph - N/A   Clear
2:15 PM 73.4 °F 44.6 °F 36% 29.84 in 10.0 mi North 8.1 mph - N/A   Clear
2:35 PM 73.4 °F 44.6 °F 36% 29.84 in 10.0 mi North 9.2 mph - N/A   Clear
2:55 PM 73.4 °F 44.6 °F 36% 29.84 in 10.0 mi North 9.2 mph - N/A   Clear
3:15 PM 71.6 °F 44.6 °F 38% 29.84 in 10.0 mi North 9.2 mph - N/A   Clear
3:35 PM 69.8 °F 44.6 °F 40% 29.83 in 10.0 mi North 8.1 mph - N/A   Clear
3:55 PM 69.8 °F 42.8 °F 38% 29.83 in 10.0 mi North 6.9 mph - N/A   Clear
4:15 PM 71.6 °F 44.6 °F 38% 29.82 in 10.0 mi NNE 4.6 mph - N/A   Clear
4:35 PM 71.6 °F 44.6 °F 38% 29.82 in 10.0 mi NNE 6.9 mph - N/A   Clear
4:55 PM 69.8 °F 44.6 °F 40% 29.82 in 10.0 mi NNE 4.6 mph - N/A   Clear
5:15 PM 69.8 °F 44.6 °F 40% 29.82 in 10.0 mi NE 4.6 mph - N/A   Clear
5:35 PM 69.8 °F 46.4 °F 43% 29.82 in 10.0 mi Calm Calm - N/A   Clear
5:55 PM 71.6 °F 48.2 °F 43% 29.81 in 10.0 mi Calm Calm - N/A   Clear
6:15 PM 69.8 °F 48.2 °F 46% 29.81 in 10.0 mi North 3.5 mph - N/A   Clear
6:35 PM 68.0 °F 50.0 °F 52% 29.82 in 10.0 mi North 4.6 mph - N/A   Clear
6:55 PM 68.0 °F 46.4 °F 46% 29.82 in 10.0 mi NNE 4.6 mph - N/A   Clear
7:15 PM 68.0 °F 46.4 °F 46% 29.82 in 10.0 mi Calm Calm - N/A   Clear
7:35 PM 64.4 °F 46.4 °F 52% 29.82 in 10.0 mi Calm Calm - N/A   Clear
7:55 PM 64.4 °F 46.4 °F 52% 29.82 in 10.0 mi Calm Calm - N/A   Clear
8:15 PM 62.6 °F 50.0 °F 63% 29.81 in 10.0 mi Calm Calm - N/A   Clear
8:35 PM 62.6 °F 50.0 °F 63% 29.80 in 10.0 mi Calm Calm - N/A Rain Light Rain
8:55 PM 62.6 °F 50.0 °F 63% 29.82 in 10.0 mi Calm Calm - N/A   Scattered Clouds
9:15 PM 60.8 °F 50.0 °F 68% 29.83 in 10.0 mi Calm Calm - N/A   Clear
9:35 PM 60.8 °F 50.0 °F 68% 29.84 in 10.0 mi Calm Calm - N/A   Clear
9:55 PM 59.0 °F 50.0 °F 72% 29.84 in 10.0 mi Calm Calm - N/A   Clear
10:15 PM 55.4 °F 50.0 °F 82% 29.84 in 10.0 mi Calm Calm - N/A   Clear
10:35 PM 55.4 °F 50.0 °F 82% 29.83 in 10.0 mi Calm Calm - N/A   Clear
10:55 PM 55.4 °F 50.0 °F 82% 29.83 in 10.0 mi Calm Calm - N/A   Clear
11:15 PM 53.6 °F 50.0 °F 88% 29.83 in 10.0 mi Calm Calm - N/A   Clear
11:35 PM 53.6 °F 50.0 °F 88% 29.84 in 10.0 mi Calm Calm - N/A   Clear
11:55 PM 53.6 °F 50.0 °F 88% 29.84 in 10.0 mi Calm Calm - N/A   Clear